createdAt,value
2018-05-25T00:00:41.916Z,77.69
2018-05-25T00:01:42.192Z,77.21
2018-05-25T00:02:42.214Z,77.59
2018-05-25T00:03:42.238Z,77.59
2018-05-25T00:04:42.257Z,77.4
2018-05-25T00:05:42.281Z,77.02
2018-05-25T00:06:42.048Z,77.21
2018-05-25T00:07:42.375Z,77.31
2018-05-25T00:08:42.090Z,78.07
2018-05-25T00:09:42.373Z,77.21
2018-05-25T00:10:42.389Z,77.69
2018-05-25T00:11:42.413Z,77.31
2018-05-25T00:12:42.435Z,77.5
2018-05-25T00:13:42.203Z,77.69
2018-05-25T00:14:42.482Z,77.11
2018-05-25T00:15:42.505Z,77.88
2018-05-25T00:16:42.521Z,76.92
2018-05-25T00:17:42.541Z,77.34
2018-05-25T00:18:42.311Z,76.35
2018-05-25T00:19:42.603Z,76.25
2018-05-25T00:20:42.353Z,77.63
2018-05-25T00:21:42.635Z,77.53
2018-05-25T00:22:42.705Z,77.63
2018-05-25T00:23:42.677Z,77.15
2018-05-25T00:24:42.725Z,76.96
2018-05-25T00:25:42.721Z,76.48
2018-05-25T00:26:42.745Z,76.1
2018-05-25T00:27:42.511Z,77.63
2018-05-25T00:28:42.788Z,77.19
2018-05-25T00:29:42.802Z,77.76
2018-05-25T00:30:42.828Z,77
2018-05-25T00:31:42.846Z,77.09
2018-05-25T00:32:42.972Z,77
2018-05-25T00:33:42.890Z,76.81
2018-05-25T00:34:42.668Z,76.81
2018-05-25T00:35:42.940Z,76.9
2018-05-25T00:36:42.963Z,76.9
2018-05-25T00:37:43.284Z,77.38
2018-05-25T00:38:42.752Z,76.32
2018-05-25T00:39:43.034Z,77.09
2018-05-25T00:40:43.044Z,77.29
2018-05-25T00:41:43.074Z,77.38
2018-05-25T00:42:43.101Z,76.81
2018-05-25T00:43:43.115Z,76.71
2018-05-25T00:44:43.145Z,77.09
2018-05-25T00:45:43.162Z,77.38
2018-05-25T00:46:43.186Z,76.9
2018-05-25T00:47:43.206Z,76.81
2018-05-25T00:48:43.228Z,76.81
2018-05-25T00:49:43.251Z,77.29
2018-05-25T00:50:43.019Z,76.9
2018-05-25T00:51:43.295Z,77.48
2018-05-25T00:52:43.365Z,77.09
2018-05-25T00:53:43.343Z,77.58
2018-05-25T00:54:43.361Z,76.77
2018-05-25T00:55:43.390Z,77.15
2018-05-25T00:56:43.406Z,76.77
2018-05-25T00:57:43.428Z,77.73
2018-05-25T00:58:43.447Z,77.15
2018-05-25T00:59:43.470Z,77.53
2018-05-25T01:00:43.494Z,77.44
2018-05-25T01:01:43.516Z,77.15
2018-05-25T01:02:43.535Z,76.96
2018-05-25T01:03:43.555Z,77.34
2018-05-25T01:04:43.585Z,77.53
2018-05-25T01:05:43.350Z,76.39
2018-05-25T01:06:43.369Z,77.15
2018-05-25T01:07:43.699Z,76.96
2018-05-25T01:08:43.668Z,77.44
2018-05-25T01:09:43.693Z,76.86
2018-05-25T01:10:43.718Z,77.15
2018-05-25T01:11:43.734Z,77.38
2018-05-25T01:12:43.765Z,77.09
2018-05-25T01:13:43.528Z,77.95
2018-05-25T01:14:43.801Z,77.19
2018-05-25T01:15:43.828Z,77.38
2018-05-25T01:16:43.847Z,77.38
2018-05-25T01:17:43.867Z,77.48
2018-05-25T01:18:43.891Z,77.29
2018-05-25T01:19:43.658Z,77.38
2018-05-25T01:20:43.934Z,77.48
2018-05-25T01:21:43.701Z,77
2018-05-25T01:22:44.028Z,77.38
2018-05-25T01:23:44.000Z,77.67
2018-05-25T01:24:44.018Z,77.58
2018-05-25T01:25:43.796Z,77.06
2018-05-25T01:26:44.064Z,77.09
2018-05-25T01:27:44.090Z,77.09
2018-05-25T01:28:43.855Z,77.09
2018-05-25T01:29:44.130Z,78.25
2018-05-25T01:30:44.149Z,78.25
2018-05-25T01:31:44.174Z,77.29
2018-05-25T01:32:44.195Z,76.86
2018-05-25T01:33:44.221Z,77.67
2018-05-25T01:34:43.984Z,77.06
2018-05-25T01:35:44.258Z,77.86
2018-05-25T01:36:44.282Z,77.44
2018-05-25T01:37:44.355Z,78.15
2018-05-25T01:38:44.327Z,77.76
2018-05-25T01:39:44.345Z,77.15
2018-05-25T01:40:44.116Z,77.53
2018-05-25T01:41:44.414Z,78.2
2018-05-25T01:42:44.412Z,77.34
2018-05-25T01:43:44.441Z,77.25
2018-05-25T01:44:44.464Z,77.73
2018-05-25T01:45:44.228Z,77.63
2018-05-25T01:46:44.503Z,78.3
2018-05-25T01:47:44.524Z,76.96
2018-05-25T01:48:44.551Z,77.53
2018-05-25T01:49:44.574Z,77.73
2018-05-25T01:50:44.592Z,77.63
2018-05-25T01:51:44.614Z,77.34
2018-05-25T01:52:44.843Z,77.53
2018-05-25T01:53:44.665Z,78.11
2018-05-25T01:54:44.707Z,77.92
2018-05-25T01:55:44.699Z,77.44
2018-05-25T01:56:44.464Z,77.53
2018-05-25T01:57:44.738Z,77.44
2018-05-25T01:58:44.510Z,77.34
2018-05-25T01:59:44.532Z,77.53
2018-05-25T02:00:44.806Z,77.63
2018-05-25T02:01:44.826Z,78.11
2018-05-25T02:02:44.857Z,77.63
2018-05-25T02:03:44.616Z,77.82
2018-05-25T02:04:44.897Z,77.34
2018-05-25T02:05:44.921Z,78.02
2018-05-25T02:06:44.950Z,77.63
2018-05-25T02:07:45.017Z,77.53
2018-05-25T02:08:44.986Z,77.53
2018-05-25T02:09:45.011Z,77.44
2018-05-25T02:10:45.032Z,77.92
2018-05-25T02:11:45.066Z,77.53
2018-05-25T02:12:45.072Z,77.53
2018-05-25T02:13:45.095Z,77.53
2018-05-25T02:14:44.867Z,77.34
2018-05-25T02:15:45.138Z,77.34
2018-05-25T02:16:45.164Z,77.63
2018-05-25T02:17:45.186Z,77.34
2018-05-25T02:18:45.212Z,77.25
2018-05-25T02:19:45.231Z,77.63
2018-05-25T02:20:45.246Z,77.44
2018-05-25T02:21:45.272Z,77.34
2018-05-25T02:22:45.346Z,77.25
2018-05-25T02:23:45.316Z,77.25
2018-05-25T02:24:45.085Z,77.73
2018-05-25T02:25:45.106Z,77.73
2018-05-25T02:26:45.380Z,78.2
2018-05-25T02:27:45.247Z,77.63
2018-05-25T02:28:45.427Z,77.63
2018-05-25T02:29:45.478Z,78.11
2018-05-25T02:30:45.464Z,77.06
2018-05-25T02:31:45.486Z,77.53
2018-05-25T02:32:45.259Z,77.53
2018-05-25T02:33:45.537Z,77.34
2018-05-25T02:34:45.553Z,77.53
2018-05-25T02:35:45.319Z,78.27
2018-05-25T02:36:45.593Z,77.11
2018-05-25T02:37:46.871Z,78.02
2018-05-25T02:38:45.863Z,77.63
2018-05-25T02:39:45.659Z,78.2
2018-05-25T02:40:45.685Z,78.02
2018-05-25T02:41:45.704Z,77.31
2018-05-25T02:42:45.729Z,78.3
2018-05-25T02:43:45.753Z,77.06
2018-05-25T02:44:45.771Z,78.3
2018-05-25T02:45:45.793Z,78.3
2018-05-25T02:46:45.815Z,77.53
2018-05-25T02:47:45.841Z,77.63
2018-05-25T02:48:45.853Z,77.97
2018-05-25T02:49:45.888Z,78.27
2018-05-25T02:50:45.903Z,77.73
2018-05-25T02:51:45.927Z,77.4
2018-05-25T02:52:45.948Z,78.07
2018-05-25T02:53:45.992Z,78.07
2018-05-25T02:54:45.988Z,77.31
2018-05-25T02:55:46.013Z,77.59
2018-05-25T02:56:46.048Z,77.82
2018-05-25T02:57:46.053Z,78.17
2018-05-25T02:58:46.082Z,77.69
2018-05-25T02:59:46.098Z,78.17
2018-05-25T03:00:46.120Z,77.59
2018-05-25T03:01:46.140Z,78.36
2018-05-25T03:02:46.163Z,77.59
2018-05-25T03:03:45.931Z,77.53
2018-05-25T03:04:46.213Z,77.69
2018-05-25T03:05:46.227Z,77.88
2018-05-25T03:06:46.253Z,77.69
2018-05-25T03:07:46.270Z,78.07
2018-05-25T03:08:46.292Z,77.69
2018-05-25T03:09:46.314Z,77.73
2018-05-25T03:10:46.347Z,77.69
2018-05-25T03:11:46.355Z,77.59
2018-05-25T03:12:46.379Z,78.17
2018-05-25T03:13:46.143Z,77.82
2018-05-25T03:14:46.422Z,77.88
2018-05-25T03:15:46.440Z,78.2
2018-05-25T03:16:46.461Z,77.88
2018-05-25T03:17:46.485Z,76.92
2018-05-25T03:18:46.502Z,78.07
2018-05-25T03:19:46.274Z,78.17
2018-05-25T03:20:46.555Z,78.17
2018-05-25T03:21:46.311Z,78.07
2018-05-25T03:22:46.330Z,77.88
2018-05-25T03:23:46.610Z,77.88
2018-05-25T03:24:46.377Z,77.44
2018-05-25T03:25:46.400Z,77.97
2018-05-25T03:26:46.668Z,78.17
2018-05-25T03:27:46.441Z,78.07
2018-05-25T03:28:46.462Z,77.97
2018-05-25T03:29:46.735Z,78.55
2018-05-25T03:30:46.506Z,77.97
2018-05-25T03:31:46.794Z,78.07
2018-05-25T03:32:46.802Z,77.69
2018-05-25T03:33:46.826Z,77.31
2018-05-25T03:34:46.884Z,77.97
2018-05-25T03:35:46.865Z,78.27
2018-05-25T03:36:46.933Z,77.97
2018-05-25T03:37:46.912Z,77.88
2018-05-25T03:38:46.925Z,78.17
2018-05-25T03:39:46.705Z,78.17
2018-05-25T03:40:46.969Z,78.07
2018-05-25T03:41:46.741Z,77.88
2018-05-25T03:42:47.016Z,77.97
2018-05-25T03:43:47.046Z,78.27
2018-05-25T03:44:46.811Z,77.88
2018-05-25T03:45:47.084Z,78.07
2018-05-25T03:46:47.117Z,77.97
2018-05-25T03:47:47.130Z,77.69
2018-05-25T03:48:47.148Z,77.69
2018-05-25T03:49:46.918Z,77.97
2018-05-25T03:50:47.189Z,78.17
2018-05-25T03:51:47.215Z,78.07
2018-05-25T03:52:47.237Z,78.3
2018-05-25T03:53:47.252Z,78.07
2018-05-25T03:54:47.271Z,77.88
2018-05-25T03:55:47.297Z,77.59
2018-05-25T03:56:47.317Z,78.45
2018-05-25T03:57:47.339Z,78.07
2018-05-25T03:58:47.107Z,78.07
2018-05-25T03:59:47.128Z,77.59
2018-05-25T04:00:47.408Z,77.78
2018-05-25T04:01:47.171Z,78.17
2018-05-25T04:02:47.453Z,77.97
2018-05-25T04:03:47.477Z,78.02
2018-05-25T04:04:47.240Z,77.5
2018-05-25T04:05:47.517Z,77.5
2018-05-25T04:06:47.283Z,77.88
2018-05-25T04:07:47.559Z,77.88
2018-05-25T04:08:47.578Z,78.2
2018-05-25T04:09:47.369Z,77.5
2018-05-25T04:10:47.633Z,78.2
2018-05-25T04:11:47.657Z,77.5
2018-05-25T04:12:47.667Z,77.5
2018-05-25T04:13:47.694Z,78.17
2018-05-25T04:14:47.708Z,78.07
2018-05-25T04:15:47.783Z,77.53
2018-05-25T04:16:47.501Z,78.4
2018-05-25T04:17:47.775Z,78.02
2018-05-25T04:18:47.797Z,78.11
2018-05-25T04:19:47.567Z,77.63
2018-05-25T04:20:47.845Z,78.02
2018-05-25T04:21:47.863Z,78.4
2018-05-25T04:22:47.888Z,77.34
2018-05-25T04:23:47.657Z,77.73
2018-05-25T04:24:47.927Z,78.11
2018-05-25T04:25:47.951Z,77.53
2018-05-25T04:26:47.971Z,77.44
2018-05-25T04:27:48.003Z,77.53
2018-05-25T04:28:47.764Z,77.73
2018-05-25T04:29:48.045Z,77.44
2018-05-25T04:30:48.072Z,78.02
2018-05-25T04:31:48.081Z,77.53
2018-05-25T04:32:48.123Z,78.15
2018-05-25T04:33:47.928Z,77
2018-05-25T04:34:48.151Z,77.76
2018-05-25T04:35:48.173Z,78.25
2018-05-25T04:36:48.194Z,77.58
2018-05-25T04:37:47.964Z,77.58
2018-05-25T04:38:47.983Z,77.76
2018-05-25T04:39:48.007Z,77.58
2018-05-25T04:40:48.281Z,77.58
2018-05-25T04:41:48.306Z,77.38
2018-05-25T04:42:48.332Z,78.15
2018-05-25T04:43:48.351Z,77.67
2018-05-25T04:44:48.376Z,77.38
2018-05-25T04:45:48.393Z,77.38
2018-05-25T04:46:48.421Z,77.67
2018-05-25T04:47:48.439Z,77.48
2018-05-25T04:48:48.463Z,77.38
2018-05-25T04:49:48.227Z,77.29
2018-05-25T04:50:48.554Z,77
2018-05-25T04:51:48.530Z,77.48
2018-05-25T04:52:48.547Z,78.05
2018-05-25T04:53:48.572Z,77.38
2018-05-25T04:54:48.595Z,77.04
2018-05-25T04:55:48.381Z,77.71
2018-05-25T04:56:48.639Z,77.51
2018-05-25T04:57:48.662Z,77.42
2018-05-25T04:58:48.443Z,76.94
2018-05-25T04:59:48.708Z,77.8
2018-05-25T05:00:48.730Z,76.75
2018-05-25T05:01:48.754Z,77.13
2018-05-25T05:02:48.777Z,76.94
2018-05-25T05:03:48.802Z,78.19
2018-05-25T05:04:48.821Z,76.65
2018-05-25T05:05:48.844Z,77.23
2018-05-25T05:06:48.877Z,77.42
2018-05-25T05:07:48.890Z,76.94
2018-05-25T05:08:48.916Z,77.23
2018-05-25T05:09:48.935Z,77.23
2018-05-25T05:10:48.953Z,76.46
2018-05-25T05:11:48.981Z,76.75
2018-05-25T05:12:49.002Z,77.04
2018-05-25T05:13:49.031Z,76.94
2018-05-25T05:14:48.812Z,78.13
2018-05-25T05:15:49.074Z,77.17
2018-05-25T05:16:49.096Z,77.36
2018-05-25T05:17:49.116Z,77.26
2018-05-25T05:18:49.149Z,75.82
2018-05-25T05:19:49.166Z,76.31
2018-05-25T05:20:48.932Z,77.36
2018-05-25T05:21:48.958Z,76.31
2018-05-25T05:22:49.238Z,77.08
2018-05-25T05:23:49.261Z,76.98
2018-05-25T05:24:49.025Z,75.92
2018-05-25T05:25:49.303Z,77.65
2018-05-25T05:26:49.374Z,75.73
2018-05-25T05:27:49.350Z,77.17
2018-05-25T05:28:49.378Z,76.21
2018-05-25T05:29:49.398Z,78.23
2018-05-25T05:30:49.165Z,75.96
2018-05-25T05:31:49.189Z,75.45
2018-05-25T05:32:49.465Z,76.25
2018-05-25T05:33:49.488Z,76.25
2018-05-25T05:34:49.522Z,76.15
2018-05-25T05:35:49.535Z,77.01
2018-05-25T05:36:49.564Z,76.25
2018-05-25T05:37:49.586Z,76.34
2018-05-25T05:38:49.605Z,76.44
2018-05-25T05:39:49.632Z,76.44
2018-05-25T05:40:49.454Z,76.15
2018-05-25T05:41:49.422Z,75.67
2018-05-25T05:42:49.703Z,75.04
2018-05-25T05:43:49.724Z,75.9
2018-05-25T05:44:49.750Z,76.57
2018-05-25T05:45:49.774Z,75.13
2018-05-25T05:46:49.797Z,76.09
2018-05-25T05:47:49.570Z,75.9
2018-05-25T05:48:49.840Z,74.85
2018-05-25T05:49:49.867Z,76.19
2018-05-25T05:50:49.888Z,75.9
2018-05-25T05:51:49.913Z,75.23
2018-05-25T05:52:49.948Z,76.48
2018-05-25T05:53:50.012Z,76.19
2018-05-25T05:54:49.983Z,75.52
2018-05-25T05:55:50.000Z,76.09
2018-05-25T05:56:49.771Z,76.54
2018-05-25T05:57:50.057Z,75.32
2018-05-25T05:58:50.082Z,76.19
2018-05-25T05:59:50.104Z,75.71
2018-05-25T06:00:50.136Z,75.9
2018-05-25T06:01:50.155Z,75.23
2018-05-25T06:02:49.932Z,75.42
2018-05-25T06:03:50.201Z,75.62
2018-05-25T06:04:50.226Z,75.04
2018-05-25T06:05:50.249Z,75.52
2018-05-25T06:06:50.273Z,76.09
2018-05-25T06:07:50.297Z,75.52
2018-05-25T06:08:50.321Z,75.04
2018-05-25T06:09:50.345Z,75.62
2018-05-25T06:10:50.366Z,75.32
2018-05-25T06:11:50.139Z,75.17
2018-05-25T06:12:50.421Z,75.46
2018-05-25T06:13:50.440Z,75.17
2018-05-25T06:14:50.467Z,75.07
2018-05-25T06:15:50.486Z,76.52
2018-05-25T06:16:50.516Z,74.98
2018-05-25T06:17:50.538Z,75.27
2018-05-25T06:18:50.564Z,74.79
2018-05-25T06:19:50.585Z,74.94
2018-05-25T06:20:50.357Z,74.94
2018-05-25T06:21:50.638Z,75.27
2018-05-25T06:22:50.404Z,75.46
2018-05-25T06:23:50.429Z,74.98
2018-05-25T06:24:50.450Z,75.84
2018-05-25T06:25:50.727Z,75.21
2018-05-25T06:26:50.751Z,75.02
2018-05-25T06:27:50.525Z,74.11
2018-05-25T06:28:50.801Z,74.4
2018-05-25T06:29:50.836Z,74.25
2018-05-25T06:30:50.850Z,75.4
2018-05-25T06:31:50.621Z,74.92
2018-05-25T06:32:50.646Z,74.54
2018-05-25T06:33:50.672Z,74.82
2018-05-25T06:34:50.762Z,73.96
2018-05-25T06:35:50.717Z,75.4
2018-05-25T06:36:50.753Z,74.19
2018-05-25T06:37:51.022Z,74.67
2018-05-25T06:38:50.792Z,73.99
2018-05-25T06:39:50.815Z,74.09
2018-05-25T06:40:51.095Z,73.67
2018-05-25T06:41:50.865Z,74.05
2018-05-25T06:42:50.890Z,74.15
2018-05-25T06:43:50.955Z,73.86
2018-05-25T06:44:50.938Z,74.05
2018-05-25T06:45:51.269Z,74.67
2018-05-25T06:46:51.241Z,74.09
2018-05-25T06:47:51.279Z,73.61
2018-05-25T06:48:51.040Z,74.15
2018-05-25T06:49:51.317Z,73.47
2018-05-25T06:50:51.393Z,73.38
2018-05-25T06:51:51.368Z,75.34
2018-05-25T06:52:51.135Z,75.15
2018-05-25T06:53:51.417Z,73.71
2018-05-25T06:54:51.434Z,73.61
2018-05-25T06:55:51.207Z,73.51
2018-05-25T06:56:51.488Z,73.8
2018-05-25T06:57:51.276Z,73.32
2018-05-25T06:58:51.540Z,74.38
2018-05-25T06:59:51.559Z,73.16
2018-05-25T07:00:51.336Z,73.42
2018-05-25T07:01:51.357Z,75.09
2018-05-25T07:02:51.633Z,74.03
2018-05-25T07:03:51.665Z,73.74
2018-05-25T07:04:51.429Z,72.97
2018-05-25T07:05:51.661Z,73.26
2018-05-25T07:06:51.731Z,73.01
2018-05-25T07:07:51.755Z,73.3
2018-05-25T07:08:51.780Z,73.2
2018-05-25T07:09:51.806Z,72.81
2018-05-25T07:10:51.836Z,73.3
2018-05-25T07:11:51.856Z,73.26
2018-05-25T07:12:51.879Z,72.78
2018-05-25T07:13:51.903Z,72.78
2018-05-25T07:14:51.925Z,74.22
2018-05-25T07:15:51.948Z,73.16
2018-05-25T07:16:51.975Z,73.3
2018-05-25T07:17:51.746Z,73.01
2018-05-25T07:18:52.039Z,73.36
2018-05-25T07:19:51.793Z,73.3
2018-05-25T07:20:52.123Z,72.3
2018-05-25T07:21:52.096Z,73.26
2018-05-25T07:22:51.868Z,73.2
2018-05-25T07:23:52.152Z,73.3
2018-05-25T07:24:52.176Z,73.2
2018-05-25T07:25:52.211Z,72.72
2018-05-25T07:26:52.366Z,73.33
2018-05-25T07:27:52.253Z,73.05
2018-05-25T07:28:52.285Z,72.85
2018-05-25T07:29:52.050Z,73.91
2018-05-25T07:30:52.328Z,73.75
2018-05-25T07:31:52.351Z,72.95
2018-05-25T07:32:52.383Z,72.47
2018-05-25T07:33:52.406Z,72.21
2018-05-25T07:34:52.428Z,72.21
2018-05-25T07:35:52.251Z,72.47
2018-05-25T07:36:52.481Z,71.12
2018-05-25T07:37:52.503Z,72.79
2018-05-25T07:38:52.274Z,71.34
2018-05-25T07:39:52.554Z,71.15
2018-05-25T07:40:52.585Z,72.31
2018-05-25T07:41:52.603Z,71.15
2018-05-25T07:42:52.627Z,71.64
2018-05-25T07:43:52.404Z,71.15
2018-05-25T07:44:52.434Z,71.06
2018-05-25T07:45:52.712Z,71.25
2018-05-25T07:46:52.729Z,72.37
2018-05-25T07:47:52.758Z,71.44
2018-05-25T07:48:52.781Z,71.73
2018-05-25T07:49:52.554Z,72.89
2018-05-25T07:50:52.885Z,71.54
2018-05-25T07:51:52.861Z,72.02
2018-05-25T07:52:52.896Z,72.15
2018-05-25T07:53:52.911Z,72.83
2018-05-25T07:54:52.937Z,72.06
2018-05-25T07:55:53.018Z,71.96
2018-05-25T07:56:52.732Z,73.02
2018-05-25T07:57:53.008Z,71.9
2018-05-25T07:58:52.781Z,71.8
2018-05-25T07:59:53.059Z,71.61
2018-05-25T08:00:53.100Z,71.32
2018-05-25T08:01:53.115Z,70.94
2018-05-25T08:02:53.138Z,73.15
2018-05-25T08:03:53.182Z,71.84
2018-05-25T08:04:53.193Z,71.45
2018-05-25T08:05:54.419Z,72.52
2018-05-25T08:06:53.246Z,71.84
2018-05-25T08:07:53.269Z,70.78
2018-05-25T08:08:53.033Z,71.06
2018-05-25T08:09:53.060Z,71.36
2018-05-25T08:10:53.338Z,70.58
2018-05-25T08:11:53.395Z,70.87
2018-05-25T08:12:53.397Z,70.72
2018-05-25T08:13:53.424Z,70.52
2018-05-25T08:14:53.452Z,71.3
2018-05-25T08:15:53.222Z,71.1
2018-05-25T08:16:53.502Z,70.81
2018-05-25T08:17:53.529Z,71.48
2018-05-25T08:18:53.306Z,70.04
2018-05-25T08:19:53.580Z,70.72
2018-05-25T08:20:53.616Z,70.23
2018-05-25T08:21:53.458Z,70.9
2018-05-25T08:22:53.657Z,70.9
2018-05-25T08:23:53.429Z,71
2018-05-25T08:24:53.715Z,71
2018-05-25T08:25:53.735Z,70.52
2018-05-25T08:26:53.514Z,70.32
2018-05-25T08:27:53.550Z,70.62
2018-05-25T08:28:53.822Z,70.81
2018-05-25T08:29:53.853Z,70.32
2018-05-25T08:30:53.858Z,70.94
2018-05-25T08:31:53.885Z,71.23
2018-05-25T08:32:53.919Z,70.17
2018-05-25T08:33:53.950Z,70.17
2018-05-25T08:34:53.975Z,69.98
2018-05-25T08:35:53.997Z,69.59
2018-05-25T08:36:53.769Z,69.78
2018-05-25T08:37:53.795Z,69.72
2018-05-25T08:38:54.075Z,69.78
2018-05-25T08:39:54.116Z,70.26
2018-05-25T08:40:53.874Z,69.98
2018-05-25T08:41:54.153Z,70.17
2018-05-25T08:42:53.930Z,70.68
2018-05-25T08:43:54.256Z,69.53
2018-05-25T08:44:54.229Z,69.82
2018-05-25T08:45:54.258Z,68.75
2018-05-25T08:46:54.284Z,68.66
2018-05-25T08:47:54.057Z,68.21
2018-05-25T08:48:54.340Z,68.75
2018-05-25T08:49:54.110Z,69.04
2018-05-25T08:50:54.410Z,67.72
2018-05-25T08:51:54.432Z,67.33
2018-05-25T08:52:54.450Z,67.91
2018-05-25T08:53:54.505Z,66.56
2018-05-25T08:54:54.500Z,67.33
2018-05-25T08:55:54.531Z,67.43
2018-05-25T08:56:54.556Z,68.01
2018-05-25T08:57:54.585Z,67.72
2018-05-25T08:58:54.627Z,67.53
2018-05-25T08:59:54.643Z,66.85
2018-05-25T09:00:54.660Z,66.69
2018-05-25T09:01:54.435Z,66.4
2018-05-25T09:02:54.713Z,66.6
2018-05-25T09:03:54.742Z,66.6
2018-05-25T09:04:54.768Z,65.95
2018-05-25T09:05:54.809Z,65.14
2018-05-25T09:06:54.587Z,65.08
2018-05-25T09:07:54.853Z,64.07
2018-05-25T09:08:54.879Z,64.98
2018-05-25T09:09:54.904Z,64.98
2018-05-25T09:10:54.929Z,66.82
2018-05-25T09:11:54.961Z,64.5
2018-05-25T09:12:54.992Z,64.24
2018-05-25T09:13:55.009Z,64.5
2018-05-25T09:14:55.059Z,63.14
2018-05-25T09:15:55.064Z,63.43
2018-05-25T09:16:55.090Z,65.37
2018-05-25T09:17:54.865Z,64.98
2018-05-25T09:18:55.149Z,63.07
2018-05-25T09:19:55.175Z,61.91
2018-05-25T09:20:54.949Z,62.3
2018-05-25T09:21:55.388Z,62.01
2018-05-25T09:22:55.273Z,59.1
2018-05-25T09:23:55.282Z,58.62
2018-05-25T09:24:55.312Z,60.75
2018-05-25T09:25:55.340Z,59.61
2018-05-25T09:26:55.369Z,57.94
2018-05-25T09:27:55.395Z,57.45
2018-05-25T09:28:55.421Z,58.91
2018-05-25T09:29:55.198Z,57.55
2018-05-25T09:30:55.556Z,58.26
2018-05-25T09:31:55.503Z,56.23
2018-05-25T09:32:55.281Z,56.9
2018-05-25T09:33:55.309Z,52.64
2018-05-25T09:34:55.595Z,52.9
2018-05-25T09:35:55.358Z,55.26
2018-05-25T09:36:55.645Z,56.39
2018-05-25T09:37:55.671Z,56.81
2018-05-25T09:38:55.458Z,53.99
2018-05-25T09:39:55.728Z,53.02
2018-05-25T09:40:55.753Z,52.44
2018-05-25T09:41:55.787Z,48.88
2018-05-25T09:42:55.809Z,48.32
2018-05-25T09:43:55.839Z,45.43
2018-05-25T09:44:55.865Z,43.71
2018-05-25T09:45:55.896Z,43.05
2018-05-25T09:46:55.671Z,41.42
2018-05-25T09:47:55.755Z,41.32
2018-05-25T09:48:56.052Z,41.14
2018-05-25T09:49:56.026Z,43.89
2018-05-25T09:50:56.031Z,38.65
2018-05-25T09:51:56.062Z,37.48
2018-05-25T09:52:56.093Z,37.12
2018-05-25T09:53:56.118Z,37.02
2018-05-25T09:54:55.909Z,36.35
2018-05-25T09:55:56.181Z,35.67
2018-05-25T09:56:56.216Z,36.08
2018-05-25T09:57:56.259Z,36.47
2018-05-25T09:58:56.286Z,36.51
2018-05-25T09:59:56.337Z,37.09
2018-05-25T10:00:56.339Z,36.98
2018-05-25T10:01:56.368Z,36.31
2018-05-25T10:02:56.407Z,38.09
2018-05-25T10:03:56.179Z,36.63
2018-05-25T10:04:56.209Z,36.55
2018-05-25T10:05:56.494Z,36.55
2018-05-25T10:06:56.530Z,34.42
2018-05-25T10:07:56.551Z,33.07
2018-05-25T10:08:56.630Z,32.87
2018-05-25T10:09:56.362Z,32.99
2018-05-25T10:10:56.649Z,31.62
2018-05-25T10:11:56.676Z,29.48
2018-05-25T10:12:56.711Z,30.05
2018-05-25T10:13:56.744Z,32.2
2018-05-25T10:14:56.978Z,30.85
2018-05-25T10:15:56.807Z,29.49
2018-05-25T10:16:56.585Z,30.65
2018-05-25T10:17:57.025Z,28.41
2018-05-25T10:18:56.916Z,28.53
2018-05-25T10:19:56.703Z,28.23
2018-05-25T10:20:56.981Z,26.96
2018-05-25T10:21:56.754Z,27.74
2018-05-25T10:22:57.051Z,27.46
2018-05-25T10:23:57.072Z,26.79
2018-05-25T10:24:57.105Z,26.2
2018-05-25T10:25:57.138Z,26.4
2018-05-25T10:26:57.170Z,25.7
2018-05-25T10:27:57.201Z,27.56
2018-05-25T10:28:57.246Z,27.07
2018-05-25T10:29:57.270Z,26.09
2018-05-25T10:30:57.308Z,25.01
2018-05-25T10:31:57.083Z,25.11
2018-05-25T10:32:57.367Z,25.11
2018-05-25T10:33:57.403Z,26.46
2018-05-25T10:34:57.443Z,25.02
2018-05-25T10:35:57.477Z,24.25
2018-05-25T10:36:57.506Z,26.29
2018-05-25T10:37:57.532Z,25.73
2018-05-25T10:38:57.573Z,23.39
2018-05-25T10:39:57.606Z,23.49
2018-05-25T10:40:57.657Z,22.81
2018-05-25T10:41:57.420Z,22.81
2018-05-25T10:42:57.801Z,23
2018-05-25T10:43:57.741Z,22.09
2018-05-25T10:44:57.776Z,22.69
2018-05-25T10:45:57.814Z,22.11
2018-05-25T10:46:57.832Z,22.7
2018-05-25T10:47:57.871Z,22.12
2018-05-25T10:48:57.902Z,21.94
2018-05-25T10:49:57.938Z,21.64
2018-05-25T10:50:57.969Z,21.64
2018-05-25T10:51:58.002Z,23.6
2018-05-25T10:52:58.036Z,22.42
2018-05-25T10:53:58.066Z,20.67
2018-05-25T10:54:57.848Z,19.68
2018-05-25T10:55:58.172Z,20.37
2018-05-25T10:56:58.373Z,20.37
2018-05-25T10:57:57.942Z,20.28
2018-05-25T10:58:58.238Z,20.19
2018-05-25T10:59:58.274Z,20.7
2018-05-25T11:00:58.056Z,18.84
2018-05-25T11:01:58.091Z,20.32
2018-05-25T11:02:58.375Z,19.15
2018-05-25T11:03:58.411Z,18.46
2018-05-25T11:04:58.461Z,18.66
2018-05-25T11:05:58.491Z,18.66
2018-05-25T11:06:58.517Z,17.78
2018-05-25T11:07:58.552Z,18.57
2018-05-25T11:08:58.583Z,18.78
2018-05-25T11:09:58.709Z,17.99
2018-05-25T11:10:58.653Z,18.88
2018-05-25T11:11:58.695Z,17.7
2018-05-25T11:12:58.723Z,17.8
2018-05-25T11:13:58.755Z,17.78
2018-05-25T11:14:58.791Z,18.68
2018-05-25T11:15:58.825Z,17.99
2018-05-25T11:16:58.866Z,18.17
2018-05-25T11:17:58.897Z,17.96
2018-05-25T11:18:58.930Z,18.15
2018-05-25T11:19:58.966Z,17.36
2018-05-25T11:20:59.055Z,17.37
2018-05-25T11:21:59.034Z,18.76
2018-05-25T11:22:59.072Z,17
2018-05-25T11:23:58.850Z,19.09
2018-05-25T11:24:59.140Z,17.51
2018-05-25T11:25:58.922Z,17.42
2018-05-25T11:26:58.973Z,17.52
2018-05-25T11:27:59.246Z,16.84
2018-05-25T11:28:59.028Z,16.74
2018-05-25T11:29:59.066Z,16.74
2018-05-25T11:30:59.356Z,17.82
2018-05-25T11:31:59.387Z,18.39
2018-05-25T11:32:59.423Z,18.58
2018-05-25T11:33:59.460Z,17.9
2018-05-25T11:34:59.495Z,17.89
2018-05-25T11:35:59.536Z,17.99
2018-05-25T11:36:59.563Z,17.3
2018-05-25T11:37:59.598Z,17.8
2018-05-25T11:38:59.638Z,16.63
2018-05-25T11:39:59.672Z,17.22
2018-05-25T11:40:59.704Z,16.44
2018-05-25T11:41:59.487Z,15.66
2018-05-25T11:42:59.784Z,15.36
2018-05-25T11:43:59.813Z,15.56
2018-05-25T11:44:59.851Z,16.55
2018-05-25T11:45:59.893Z,17.33
2018-05-25T11:46:59.923Z,16.93
2018-05-25T11:47:59.964Z,17.22
2018-05-25T11:48:59.742Z,16.14
2018-05-25T11:50:00.026Z,17.13
2018-05-25T11:51:00.060Z,17.65
2018-05-25T11:52:00.097Z,16.37
2018-05-25T11:53:00.225Z,17.07
2018-05-25T11:54:00.168Z,15.39
2018-05-25T11:55:00.206Z,15.39
2018-05-25T11:55:59.990Z,17.65
2018-05-25T11:57:00.282Z,16.67
2018-05-25T11:58:00.314Z,16.58
2018-05-25T11:59:00.353Z,15.4
2018-05-25T12:00:00.394Z,16.68
2018-05-25T12:01:00.173Z,16.09
2018-05-25T12:02:00.474Z,16.09
2018-05-25T12:03:00.500Z,16.19
2018-05-25T12:04:00.535Z,15.8
2018-05-25T12:05:00.577Z,15.98
2018-05-25T12:06:00.611Z,15.28
2018-05-25T12:07:00.648Z,14.99
2018-05-25T12:08:00.686Z,14.69
2018-05-25T12:09:00.725Z,15.08
2018-05-25T12:10:00.760Z,14.98
2018-05-25T12:11:00.795Z,15.39
2018-05-25T12:12:00.830Z,14.79
2018-05-25T12:13:00.869Z,15.39
2018-05-25T12:14:00.650Z,14.89
2018-05-25T12:15:00.943Z,14.5
2018-05-25T12:16:00.978Z,14.31
2018-05-25T12:17:00.760Z,13.71
2018-05-25T12:18:00.798Z,13.62
2018-05-25T12:19:01.089Z,12.54
2018-05-25T12:20:00.865Z,13.03
2018-05-25T12:21:01.155Z,12.93
2018-05-25T12:22:01.192Z,13.02
2018-05-25T12:23:01.229Z,13.21
2018-05-25T12:24:01.013Z,13.82
2018-05-25T12:25:01.302Z,13.33
2018-05-25T12:26:01.344Z,12.65
2018-05-25T12:27:01.379Z,13.24
2018-05-25T12:28:01.478Z,12.75
2018-05-25T12:29:01.451Z,12.56
2018-05-25T12:30:01.499Z,12.74
2018-05-25T12:31:01.536Z,13.33
2018-05-25T12:32:01.568Z,12.93
2018-05-25T12:33:01.611Z,12.14
2018-05-25T12:34:01.644Z,13.23
2018-05-25T12:35:01.692Z,14.31
2018-05-25T12:36:01.740Z,13.03
2018-05-25T12:37:01.504Z,14.02
2018-05-25T12:38:01.798Z,13.74
2018-05-25T12:39:01.834Z,13.84
2018-05-25T12:40:01.873Z,13.82
2018-05-25T12:41:01.910Z,13.63
2018-05-25T12:42:02.004Z,13.44
2018-05-25T12:43:01.980Z,13.24
2018-05-25T12:44:02.021Z,12.84
2018-05-25T12:45:02.062Z,11.76
2018-05-25T12:46:01.840Z,12.16
2018-05-25T12:47:01.876Z,12.66
2018-05-25T12:48:01.914Z,12.74
2018-05-25T12:49:01.955Z,12.05
2018-05-25T12:50:01.985Z,12.16
2018-05-25T12:51:02.023Z,12.35
2018-05-25T12:52:02.321Z,13.05
2018-05-25T12:53:02.110Z,12.05
2018-05-25T12:54:02.142Z,11.77
2018-05-25T12:55:02.181Z,12.47
2018-05-25T12:56:02.471Z,13.25